This is the latest recevied weather packets stored in our database for station/object SP2FH-13. If no packets are shown the sender has not sent any weather packets the latest 1 day(s).
| Time | Temp. | Humidity | Pressure | Rain* | Wind** | Luminosity | Snow |
|---|---|---|---|---|---|---|---|
| 1778087206 | 19.44° C | 59% | 994.3 hPa | - | - | 48 W/m² | - |
| 1778085398 | 20° C | 58% | 994.2 hPa | - | - | 83 W/m² | - |
| 1778084193 | 20.56° C | 53% | 994.3 hPa | - | - | 95 W/m² | - |
| 1778083892 | 21.11° C | 53% | 994.3 hPa | - | - | 132 W/m² | - |
| 1778082988 | 20° C | 56% | 994.3 hPa | - | - | 224 W/m² | - |
| 1778082687 | 20° C | 57% | 994.4 hPa | - | - | 127 W/m² | - |
| 1778081182 | 20.56° C | 53% | 994.6 hPa | - | - | 215 W/m² | - |
| 1778080881 | 20.56° C | 54% | 994.6 hPa | - | - | 138 W/m² | - |
| 1778079677 | 20° C | 56% | 994.8 hPa | - | - | 344 W/m² | - |
| 1778079376 | 20° C | 58% | 994.8 hPa | - | - | 124 W/m² | - |
| 1778078774 | 20.56° C | 54% | 994.8 hPa | - | - | 204 W/m² | - |
| 1778078473 | 20° C | 56% | 994.8 hPa | - | - | 264 W/m² | - |
| 1778078172 | 20° C | 56% | 994.9 hPa | - | - | 196 W/m² | - |
| 1778077570 | 19.44° C | 57% | 994.8 hPa | - | - | 180 W/m² | - |
| 1778077269 | 20° C | 56% | 994.9 hPa | - | - | 158 W/m² | - |
| 1778075462 | 20° C | 54% | 994.9 hPa | - | - | 219 W/m² | - |
| 1778075161 | 19.44° C | 56% | 994.9 hPa | - | - | 229 W/m² | - |
| 1778074860 | 19.44° C | 57% | 994.9 hPa | - | - | 200 W/m² | - |
| 1778073052 | 19.44° C | 55% | 994.8 hPa | - | - | 293 W/m² | - |
| 1778072751 | 19.44° C | 55% | 994.8 hPa | - | - | 227 W/m² | - |
| 1778071847 | 20° C | 53% | 994.6 hPa | - | - | 449 W/m² | - |
| 1778071244 | 20.56° C | 50% | 994.7 hPa | - | - | 714 W/m² | - |
| 1778070040 | 20.56° C | 50% | 994.7 hPa | - | - | 524 W/m² | - |
| 1778068530 | 19.44° C | 54% | 994.6 hPa | - | - | 257 W/m² | - |
| 1778067928 | 20° C | 52% | 994.5 hPa | - | - | 181 W/m² | - |
* Rain since midnight (hover to see other rain measurements)
** Current wind speed in m/s (hover to see current wind gust speed)